createdAt,value
2023-10-29T00:01:35.647Z,2.13
2023-10-29T00:04:02.477Z,2.20
2023-10-29T00:06:29.370Z,2.00
2023-10-29T00:08:55.998Z,1.88
2023-10-29T00:11:22.922Z,1.67
2023-10-29T00:13:49.626Z,1.60
2023-10-29T00:16:16.308Z,1.90
2023-10-29T00:18:42.948Z,1.55
2023-10-29T00:21:09.542Z,1.50
2023-10-29T00:23:36.210Z,1.40
2023-10-29T00:26:03.001Z,1.50
2023-10-29T00:28:29.638Z,2.17
2023-10-29T00:30:56.726Z,1.40
2023-10-29T00:33:24.060Z,1.20
2023-10-29T00:35:51.402Z,1.20
2023-10-29T00:38:18.082Z,1.10
2023-10-29T00:40:44.695Z,1.00
2023-10-29T00:43:17.117Z,1.27
2023-10-29T00:45:44.235Z,0.93
2023-10-29T00:48:11.916Z,0.80
2023-10-29T00:50:39.332Z,1.00
2023-10-29T00:53:06.523Z,1.10
2023-10-29T00:55:33.383Z,1.45
2023-10-29T00:58:00.094Z,1.00
2023-10-29T01:00:26.756Z,0.90
2023-10-29T01:02:53.610Z,1.10
2023-10-29T01:05:20.428Z,0.90
2023-10-29T01:07:48.152Z,1.02
2023-10-29T01:10:15.022Z,1.00
2023-10-29T01:12:41.606Z,0.90
2023-10-29T01:15:08.504Z,1.08
2023-10-29T01:17:35.181Z,1.27
2023-10-29T01:20:02.761Z,0.70
2023-10-29T01:22:29.427Z,1.05
2023-10-29T01:24:56.058Z,1.25
2023-10-29T01:27:22.838Z,1.00
2023-10-29T01:29:49.672Z,0.93
2023-10-29T01:32:16.317Z,0.90
2023-10-29T01:34:43.410Z,0.90
2023-10-29T01:37:10.090Z,0.95
2023-10-29T01:39:36.698Z,1.10
2023-10-29T01:42:03.464Z,1.08
2023-10-29T01:44:30.127Z,1.02
2023-10-29T01:46:56.720Z,1.00
2023-10-29T01:49:23.298Z,0.70
2023-10-29T01:51:50.896Z,0.77
2023-10-29T01:54:17.580Z,0.97
2023-10-29T01:56:44.343Z,1.05
2023-10-29T01:59:14.490Z,0.93
2023-10-29T02:01:41.929Z,1.20
2023-10-29T02:04:10.253Z,1.00
2023-10-29T02:06:40.603Z,1.15
2023-10-29T02:09:10.015Z,1.05
2023-10-29T02:11:40.425Z,0.80
2023-10-29T02:14:07.792Z,0.98
2023-10-29T02:16:35.054Z,1.13
2023-10-29T02:19:01.629Z,1.10
2023-10-29T02:21:28.210Z,1.08
2023-10-29T02:23:56.249Z,1.23
2023-10-29T02:26:24.194Z,1.00
2023-10-29T02:28:50.917Z,1.03
2023-10-29T02:31:21.600Z,0.93
2023-10-29T02:33:48.743Z,0.90
2023-10-29T02:36:15.413Z,0.90
2023-10-29T02:38:44.270Z,1.08
2023-10-29T02:41:11.004Z,1.00
2023-10-29T02:43:44.018Z,1.00
2023-10-29T02:46:12.078Z,0.80
2023-10-29T02:48:38.949Z,0.88
2023-10-29T02:51:05.664Z,1.10
2023-10-29T02:53:32.625Z,1.17
2023-10-29T02:56:02.499Z,0.80
2023-10-29T02:58:29.182Z,0.88
2023-10-29T03:01:04.481Z,0.90
2023-10-29T03:03:31.515Z,0.85
2023-10-29T03:05:58.369Z,0.85
2023-10-29T03:08:25.327Z,0.80
2023-10-29T03:10:52.502Z,0.90
2023-10-29T03:13:19.170Z,1.00
2023-10-29T03:15:46.440Z,0.85
2023-10-29T03:18:14.713Z,1.00
2023-10-29T03:20:42.073Z,1.00
2023-10-29T03:23:09.203Z,1.02
2023-10-29T03:25:36.102Z,0.95
2023-10-29T03:28:02.734Z,1.00
2023-10-29T03:30:29.329Z,1.08
2023-10-29T03:32:56.053Z,0.85
2023-10-29T03:35:22.698Z,0.80
2023-10-29T03:37:49.280Z,0.93
2023-10-29T03:40:16.173Z,0.90
2023-10-29T03:42:42.769Z,0.90
2023-10-29T03:45:09.705Z,0.82
2023-10-29T03:47:36.853Z,1.10
2023-10-29T03:50:03.701Z,1.00
2023-10-29T03:52:30.514Z,1.00
2023-10-29T03:54:57.116Z,0.98
2023-10-29T03:57:23.738Z,0.90
2023-10-29T03:59:50.452Z,0.90
2023-10-29T04:02:17.041Z,1.15
2023-10-29T04:04:47.889Z,0.90
2023-10-29T04:07:17.353Z,1.20
2023-10-29T04:09:44.354Z,0.98
2023-10-29T04:12:10.938Z,1.20
2023-10-29T04:14:40.009Z,0.93
2023-10-29T04:17:08.080Z,0.80
2023-10-29T04:19:34.834Z,1.00
2023-10-29T04:22:02.788Z,0.80
2023-10-29T04:24:29.417Z,1.60
2023-10-29T04:26:56.556Z,1.20
2023-10-29T04:29:23.200Z,1.13
2023-10-29T04:31:49.899Z,0.88
2023-10-29T04:34:16.474Z,0.90
2023-10-29T04:36:43.669Z,0.98
2023-10-29T04:39:10.263Z,1.30
2023-10-29T04:41:36.941Z,0.90
2023-10-29T04:44:04.067Z,0.80
2023-10-29T04:46:30.734Z,1.15
2023-10-29T04:48:57.346Z,0.90
2023-10-29T04:51:24.272Z,0.90
2023-10-29T04:53:50.903Z,1.10
2023-10-29T04:56:17.522Z,1.05
2023-10-29T04:58:44.109Z,1.00
2023-10-29T05:01:10.755Z,0.90
2023-10-29T05:03:37.485Z,0.93
2023-10-29T05:06:05.540Z,0.70
2023-10-29T05:08:32.210Z,0.75
2023-10-29T05:10:58.831Z,1.00
2023-10-29T05:13:25.418Z,0.90
2023-10-29T05:15:52.045Z,0.82
2023-10-29T05:18:18.996Z,0.90
2023-10-29T05:20:46.238Z,0.90
2023-10-29T05:23:12.903Z,0.90
2023-10-29T05:25:40.466Z,1.02
2023-10-29T05:28:07.054Z,0.93
2023-10-29T05:30:33.867Z,1.00
2023-10-29T05:33:00.673Z,0.82
2023-10-29T05:35:27.352Z,1.00
2023-10-29T05:37:53.932Z,0.90
2023-10-29T05:40:20.571Z,0.93
2023-10-29T05:42:47.154Z,0.93
2023-10-29T05:45:13.807Z,0.90
2023-10-29T05:47:40.475Z,0.70
2023-10-29T05:50:07.798Z,0.90
2023-10-29T05:52:34.525Z,0.80
2023-10-29T05:55:05.006Z,0.95
2023-10-29T05:57:31.608Z,1.00
2023-10-29T05:59:58.343Z,0.98
2023-10-29T06:02:25.557Z,0.98
2023-10-29T06:04:52.348Z,0.90
2023-10-29T06:07:19.657Z,1.00
2023-10-29T06:09:46.290Z,0.90
2023-10-29T06:12:12.901Z,0.85
2023-10-29T06:14:39.729Z,0.90
2023-10-29T06:17:19.597Z,0.70
2023-10-29T06:19:52.792Z,0.80
2023-10-29T06:22:19.436Z,0.93
2023-10-29T06:24:46.279Z,0.90
2023-10-29T06:27:13.087Z,0.80
2023-10-29T06:29:39.880Z,0.70
2023-10-29T06:32:06.639Z,0.88
2023-10-29T06:34:33.249Z,0.77
2023-10-29T06:36:59.850Z,0.80
2023-10-29T06:39:26.491Z,2.13
2023-10-29T06:41:53.629Z,0.93
2023-10-29T06:44:20.269Z,0.70
2023-10-29T06:46:47.003Z,0.88
2023-10-29T06:49:13.725Z,0.68
2023-10-29T06:51:40.443Z,0.75
2023-10-29T06:54:07.393Z,0.82
2023-10-29T06:56:34.303Z,1.00
2023-10-29T06:59:00.987Z,0.60
2023-10-29T07:01:27.992Z,0.80
2023-10-29T07:03:55.657Z,0.80
2023-10-29T07:06:22.436Z,0.68
2023-10-29T07:08:49.123Z,0.77
2023-10-29T07:11:15.850Z,0.80
2023-10-29T07:13:43.174Z,0.63
2023-10-29T07:16:10.595Z,0.70
2023-10-29T07:18:38.077Z,0.75
2023-10-29T07:21:06.263Z,0.90
2023-10-29T07:23:33.175Z,0.70
2023-10-29T07:26:00.266Z,0.80
2023-10-29T07:28:29.578Z,0.82
2023-10-29T07:30:59.451Z,0.65
2023-10-29T07:33:26.126Z,0.82
2023-10-29T07:35:52.879Z,0.75
2023-10-29T07:38:19.510Z,0.60
2023-10-29T07:40:46.088Z,0.90
2023-10-29T07:43:12.761Z,0.70
2023-10-29T07:45:39.420Z,0.85
2023-10-29T07:48:06.246Z,0.70
2023-10-29T07:50:33.008Z,0.60
2023-10-29T07:52:59.732Z,0.60
2023-10-29T07:55:26.407Z,0.50
2023-10-29T07:57:53.408Z,0.82
2023-10-29T08:00:20.647Z,0.50
2023-10-29T08:02:47.559Z,0.80
2023-10-29T08:05:16.145Z,0.98
2023-10-29T08:07:42.805Z,0.50
2023-10-29T08:10:09.995Z,0.80
2023-10-29T08:12:36.615Z,0.85
2023-10-29T08:15:04.208Z,0.70
2023-10-29T08:17:31.294Z,1.02
2023-10-29T08:19:59.881Z,0.70
2023-10-29T08:24:53.658Z,1.02
2023-10-29T08:27:20.242Z,0.90
2023-10-29T08:29:46.916Z,1.00
2023-10-29T08:32:14.058Z,0.82
2023-10-29T08:34:40.759Z,0.82
2023-10-29T08:37:07.348Z,0.80
2023-10-29T08:39:34.115Z,0.80
2023-10-29T08:42:03.633Z,0.70
2023-10-29T08:44:30.565Z,0.60
2023-10-29T08:46:57.553Z,0.70
2023-10-29T08:49:24.322Z,0.82
2023-10-29T08:51:51.334Z,0.70
2023-10-29T08:54:18.289Z,0.70
2023-10-29T08:56:45.940Z,0.80
2023-10-29T09:01:40.114Z,0.90
2023-10-29T09:04:06.929Z,0.75
2023-10-29T09:06:33.963Z,1.20
2023-10-29T09:09:00.871Z,0.68
2023-10-29T09:11:27.552Z,0.80
2023-10-29T09:13:54.703Z,0.93
2023-10-29T09:16:21.940Z,0.63
2023-10-29T09:18:48.522Z,0.73
2023-10-29T09:21:15.495Z,0.57
2023-10-29T09:23:42.317Z,0.90
2023-10-29T09:26:09.060Z,0.80
2023-10-29T09:28:35.656Z,0.75
2023-10-29T09:31:02.258Z,0.75
2023-10-29T09:33:30.106Z,1.00
2023-10-29T09:35:57.015Z,0.77
2023-10-29T09:38:23.656Z,0.85
2023-10-29T09:40:53.792Z,0.88
2023-10-29T09:43:21.975Z,0.98
2023-10-29T09:45:48.916Z,0.80
2023-10-29T09:48:16.554Z,0.80
2023-10-29T09:50:44.726Z,0.80
2023-10-29T09:53:16.287Z,0.90
2023-10-29T09:55:42.997Z,0.93
2023-10-29T09:58:10.424Z,0.80
2023-10-29T10:00:37.790Z,0.60
2023-10-29T10:03:05.457Z,0.80
2023-10-29T10:05:32.300Z,1.00
2023-10-29T10:07:59.156Z,0.65
2023-10-29T10:10:45.125Z,1.45
2023-10-29T10:13:12.070Z,0.90
2023-10-29T10:15:38.947Z,0.75
2023-10-29T10:18:06.833Z,0.93
2023-10-29T10:20:34.825Z,1.05
2023-10-29T10:23:06.054Z,0.73
2023-10-29T10:25:33.552Z,0.80
2023-10-29T10:28:01.481Z,0.57
2023-10-29T10:30:36.182Z,0.70
2023-10-29T10:33:14.962Z,0.95
2023-10-29T10:35:44.652Z,0.90
2023-10-29T10:38:12.434Z,2.65
2023-10-29T10:40:39.929Z,0.80
2023-10-29T10:43:08.594Z,0.60
2023-10-29T10:48:05.169Z,0.50
2023-10-29T10:50:32.854Z,0.82
2023-10-29T10:52:59.931Z,0.85
2023-10-29T10:57:59.704Z,0.60
2023-10-29T11:00:27.948Z,0.70
2023-10-29T11:02:54.730Z,0.60
2023-10-29T11:05:22.247Z,0.70
2023-10-29T11:07:49.181Z,0.60
2023-10-29T11:10:16.599Z,0.50
2023-10-29T11:12:43.286Z,0.60
2023-10-29T11:15:14.978Z,0.80
2023-10-29T11:18:14.200Z,0.60
2023-10-29T11:20:42.853Z,0.52
2023-10-29T11:23:10.728Z,0.50
2023-10-29T11:25:37.397Z,0.70
2023-10-29T11:28:04.322Z,0.80
2023-10-29T11:30:31.260Z,0.75
2023-10-29T11:33:06.943Z,0.80
2023-10-29T11:35:37.814Z,0.68
2023-10-29T11:38:36.565Z,0.77
2023-10-29T11:41:32.498Z,0.75
2023-10-29T11:44:21.750Z,0.50
2023-10-29T11:46:57.517Z,0.52
2023-10-29T11:49:24.280Z,0.50
2023-10-29T11:52:00.361Z,0.60
2023-10-29T11:54:27.531Z,1.05
2023-10-29T11:56:54.966Z,0.95
2023-10-29T11:59:21.589Z,0.50
2023-10-29T12:01:48.206Z,0.40
2023-10-29T12:04:14.955Z,0.40
2023-10-29T12:06:46.530Z,0.60
2023-10-29T12:09:22.963Z,0.60
2023-10-29T12:11:53.647Z,0.80
2023-10-29T12:14:40.082Z,0.50
2023-10-29T12:17:07.671Z,0.65
2023-10-29T12:19:44.791Z,1.15
2023-10-29T12:22:28.638Z,0.63
2023-10-29T12:24:59.759Z,0.70
2023-10-29T12:27:26.510Z,0.80
2023-10-29T12:29:53.631Z,0.60
2023-10-29T12:32:23.289Z,0.70
2023-10-29T12:34:50.861Z,0.57
2023-10-29T12:37:32.526Z,0.70
2023-10-29T12:40:01.266Z,0.90
2023-10-29T12:42:52.681Z,0.68
2023-10-29T12:45:32.825Z,0.40
2023-10-29T12:48:16.072Z,0.60
2023-10-29T12:50:49.465Z,0.73
2023-10-29T12:53:27.098Z,0.60
2023-10-29T12:55:54.351Z,0.50
2023-10-29T12:58:22.266Z,0.60
2023-10-29T13:00:49.087Z,0.80
2023-10-29T13:03:15.739Z,0.70
2023-10-29T13:05:42.745Z,0.70
2023-10-29T13:08:12.333Z,0.77
2023-10-29T13:10:39.138Z,0.65
2023-10-29T13:13:05.940Z,0.57
2023-10-29T13:15:32.583Z,0.60
2023-10-29T13:17:59.204Z,0.50
2023-10-29T13:20:27.943Z,0.70
2023-10-29T13:22:54.681Z,1.00
2023-10-29T13:25:21.500Z,0.75
2023-10-29T13:27:48.294Z,0.70
2023-10-29T13:30:15.042Z,0.50
2023-10-29T13:32:41.744Z,0.60
2023-10-29T13:35:10.255Z,0.55
2023-10-29T13:40:07.733Z,0.60
2023-10-29T13:42:34.423Z,0.70
2023-10-29T13:45:01.704Z,0.70
2023-10-29T13:47:28.358Z,0.55
2023-10-29T13:49:54.961Z,0.57
2023-10-29T13:52:21.605Z,0.45
2023-10-29T13:54:48.610Z,0.57
2023-10-29T13:57:16.016Z,0.60
2023-10-29T13:59:42.714Z,0.52
2023-10-29T14:02:09.318Z,0.47
2023-10-29T14:04:35.976Z,0.60
2023-10-29T14:07:02.617Z,0.50
2023-10-29T14:09:29.330Z,0.50
2023-10-29T14:11:55.996Z,0.80
2023-10-29T14:14:24.974Z,0.90
2023-10-29T14:16:51.750Z,0.70
2023-10-29T14:19:20.959Z,0.65
2023-10-29T14:21:51.042Z,0.60
2023-10-29T14:24:17.758Z,0.80
2023-10-29T14:26:44.437Z,0.50
2023-10-29T14:29:11.085Z,0.43
2023-10-29T14:31:37.831Z,0.50
2023-10-29T14:34:05.149Z,0.50
2023-10-29T14:36:31.773Z,0.47
2023-10-29T14:38:58.397Z,0.60
2023-10-29T14:41:26.021Z,0.50
2023-10-29T14:43:52.975Z,0.50
2023-10-29T14:46:19.707Z,0.60
2023-10-29T14:48:46.441Z,0.50
2023-10-29T14:51:13.454Z,0.68
2023-10-29T14:53:40.259Z,0.50
2023-10-29T14:56:07.677Z,0.77
2023-10-29T14:58:34.261Z,0.50
2023-10-29T15:01:05.212Z,0.60
2023-10-29T15:03:32.124Z,0.85
2023-10-29T15:05:59.882Z,0.73
2023-10-29T15:08:27.404Z,0.90
2023-10-29T15:10:54.090Z,0.70
2023-10-29T15:13:22.829Z,0.60
2023-10-29T15:15:49.536Z,0.45
2023-10-29T15:18:16.530Z,0.70
2023-10-29T15:20:54.364Z,0.50
2023-10-29T15:23:25.038Z,0.60
2023-10-29T15:25:51.666Z,0.60
2023-10-29T15:28:18.261Z,0.68
2023-10-29T15:30:44.870Z,0.50
2023-10-29T15:33:11.574Z,0.50
2023-10-29T15:35:38.391Z,0.60
2023-10-29T15:38:04.987Z,0.70
2023-10-29T15:40:32.927Z,0.50
2023-10-29T15:43:01.451Z,0.55
2023-10-29T15:45:28.165Z,0.65
2023-10-29T15:47:54.960Z,0.68
2023-10-29T15:50:21.864Z,0.68
2023-10-29T15:52:48.454Z,0.70
2023-10-29T15:55:15.296Z,0.70
2023-10-29T15:57:41.983Z,0.80
2023-10-29T16:00:09.997Z,0.68
2023-10-29T16:02:36.866Z,0.63
2023-10-29T16:05:05.051Z,0.80
2023-10-29T16:07:31.731Z,0.70
2023-10-29T16:09:58.410Z,0.60
2023-10-29T16:12:25.053Z,0.80
2023-10-29T16:14:52.846Z,1.02
2023-10-29T16:17:19.587Z,0.60
2023-10-29T16:19:46.728Z,0.52
2023-10-29T16:22:13.527Z,0.70
2023-10-29T16:24:40.115Z,0.70
2023-10-29T16:27:06.719Z,0.70
2023-10-29T16:29:33.461Z,0.77
2023-10-29T16:32:00.432Z,0.50
2023-10-29T16:34:27.152Z,0.60
2023-10-29T16:36:53.868Z,0.60
2023-10-29T16:39:20.510Z,0.80
2023-10-29T16:41:47.139Z,0.57
2023-10-29T16:44:14.048Z,0.43
2023-10-29T16:46:40.660Z,0.70
2023-10-29T16:49:07.282Z,0.80
2023-10-29T16:51:34.145Z,0.60
2023-10-29T16:54:01.336Z,0.45
2023-10-29T16:56:28.036Z,0.50
2023-10-29T16:58:54.610Z,0.40
2023-10-29T17:01:21.442Z,0.65
2023-10-29T17:03:50.135Z,0.60
2023-10-29T17:06:18.397Z,0.60
2023-10-29T17:08:46.159Z,0.60
2023-10-29T17:11:12.863Z,0.63
2023-10-29T17:13:39.427Z,0.50
2023-10-29T17:16:06.511Z,0.50
2023-10-29T17:18:33.560Z,0.68
2023-10-29T17:21:01.088Z,0.60
2023-10-29T17:23:28.353Z,0.55
2023-10-29T17:25:55.046Z,0.65
2023-10-29T17:28:21.663Z,0.45
2023-10-29T17:30:48.297Z,0.80
2023-10-29T17:33:15.000Z,0.50
2023-10-29T17:35:41.697Z,0.75
2023-10-29T17:38:08.379Z,0.60
2023-10-29T17:40:35.069Z,0.50
2023-10-29T17:43:01.741Z,0.65
2023-10-29T17:45:28.754Z,0.70
2023-10-29T17:47:58.360Z,0.77
2023-10-29T17:50:25.101Z,0.73
2023-10-29T17:52:51.721Z,0.57
2023-10-29T17:55:18.451Z,0.60
2023-10-29T17:57:45.459Z,0.93
2023-10-29T18:00:14.317Z,0.80
2023-10-29T18:02:42.335Z,1.63
2023-10-29T18:05:12.235Z,0.57
2023-10-29T18:07:38.979Z,0.50
2023-10-29T18:10:06.771Z,0.60
2023-10-29T18:12:33.616Z,0.93
2023-10-29T18:15:00.478Z,0.80
2023-10-29T18:17:27.177Z,0.77
2023-10-29T18:19:54.678Z,0.70
2023-10-29T18:22:22.885Z,0.90
2023-10-29T18:24:49.879Z,0.70
2023-10-29T18:27:16.734Z,0.80
2023-10-29T18:29:43.461Z,0.90
2023-10-29T18:32:11.362Z,0.60
2023-10-29T18:34:38.747Z,0.68
2023-10-29T18:37:05.591Z,0.68
2023-10-29T18:39:32.453Z,0.73
2023-10-29T18:41:59.834Z,0.55
2023-10-29T18:44:31.311Z,0.80
2023-10-29T18:47:01.689Z,0.65
2023-10-29T18:49:29.056Z,0.60
2023-10-29T18:51:58.915Z,1.08
2023-10-29T18:54:25.859Z,0.57
2023-10-29T18:56:53.812Z,0.60
2023-10-29T18:59:21.110Z,0.68
2023-10-29T19:01:47.808Z,0.73
2023-10-29T19:04:14.827Z,0.60
2023-10-29T19:06:42.979Z,0.60
2023-10-29T19:09:10.692Z,0.50
2023-10-29T19:11:37.770Z,0.50
2023-10-29T19:14:04.782Z,0.75
2023-10-29T19:16:31.762Z,0.60
2023-10-29T19:18:58.451Z,0.70
2023-10-29T19:21:25.147Z,0.63
2023-10-29T19:23:51.813Z,0.90
2023-10-29T19:26:18.448Z,0.70
2023-10-29T19:28:45.039Z,0.90
2023-10-29T19:31:25.097Z,0.70
2023-10-29T19:33:53.647Z,0.55
2023-10-29T19:36:20.346Z,0.60
2023-10-29T19:38:46.949Z,0.50
2023-10-29T19:41:13.593Z,0.70
2023-10-29T19:43:40.286Z,0.60
2023-10-29T19:46:07.192Z,0.70
2023-10-29T19:48:34.130Z,0.70
2023-10-29T19:51:05.324Z,0.88
2023-10-29T19:53:33.255Z,0.73
2023-10-29T19:56:00.322Z,0.80
2023-10-29T19:58:27.699Z,0.68
2023-10-29T20:01:03.017Z,0.80
2023-10-29T20:03:29.789Z,0.60
2023-10-29T20:05:56.940Z,0.73
2023-10-29T20:08:23.798Z,0.80
2023-10-29T20:10:50.437Z,0.70
2023-10-29T20:13:18.159Z,0.90
2023-10-29T20:15:44.744Z,0.73
2023-10-29T20:18:11.400Z,0.80
2023-10-29T20:20:39.145Z,0.80
2023-10-29T20:23:05.724Z,0.60
2023-10-29T20:25:32.417Z,0.52
2023-10-29T20:27:59.025Z,0.80
2023-10-29T20:30:25.831Z,0.80
2023-10-29T20:32:52.633Z,1.00
2023-10-29T20:35:19.513Z,0.70
2023-10-29T20:37:46.370Z,0.70
2023-10-29T20:40:13.283Z,0.93
2023-10-29T20:42:39.870Z,0.70
2023-10-29T20:45:07.599Z,0.75
2023-10-29T20:47:34.224Z,0.60
2023-10-29T20:50:00.819Z,0.70
2023-10-29T20:52:27.459Z,0.63
2023-10-29T20:54:54.040Z,0.73
2023-10-29T20:57:20.707Z,0.55
2023-10-29T20:59:50.636Z,0.93
2023-10-29T21:02:17.638Z,0.80
2023-10-29T21:04:44.479Z,0.60
2023-10-29T21:07:11.100Z,0.95
2023-10-29T21:09:38.570Z,1.00
2023-10-29T21:12:05.606Z,1.15
2023-10-29T21:14:32.346Z,0.80
2023-10-29T21:16:58.957Z,1.02
2023-10-29T21:19:30.247Z,0.70
2023-10-29T21:21:58.186Z,0.88
2023-10-29T21:24:24.968Z,0.82
2023-10-29T21:26:52.525Z,0.80
2023-10-29T21:29:19.748Z,0.90
2023-10-29T21:31:46.626Z,0.90
2023-10-29T21:34:13.259Z,0.85
2023-10-29T21:36:39.859Z,0.70
2023-10-29T21:39:08.350Z,0.85
2023-10-29T21:44:01.489Z,1.02
2023-10-29T21:46:28.191Z,1.00
2023-10-29T21:48:54.942Z,1.15
2023-10-29T21:51:21.829Z,0.70
2023-10-29T21:53:48.550Z,0.70
2023-10-29T21:56:15.115Z,0.80
2023-10-29T21:58:41.767Z,0.70
2023-10-29T22:01:10.921Z,1.25
2023-10-29T22:03:37.769Z,1.08
2023-10-29T22:06:05.832Z,0.80
2023-10-29T22:08:34.562Z,1.10
2023-10-29T22:11:03.009Z,1.00
2023-10-29T22:13:32.698Z,1.10
2023-10-29T22:16:13.083Z,1.10
2023-10-29T22:18:40.179Z,0.95
2023-10-29T22:21:12.069Z,0.90
2023-10-29T22:23:39.383Z,0.90
2023-10-29T22:26:06.874Z,1.10
2023-10-29T22:28:34.131Z,0.85
2023-10-29T22:31:01.910Z,1.42
2023-10-29T22:33:32.364Z,1.00
2023-10-29T22:36:04.495Z,0.88
2023-10-29T22:38:31.465Z,1.08
2023-10-29T22:41:13.962Z,0.93
2023-10-29T22:43:40.624Z,0.90
2023-10-29T22:46:07.490Z,0.80
2023-10-29T22:48:34.357Z,1.10
2023-10-29T22:51:04.471Z,0.95
2023-10-29T22:53:31.201Z,0.90
2023-10-29T22:56:01.511Z,1.00
2023-10-29T22:58:28.786Z,1.27
2023-10-29T23:00:55.701Z,1.17
2023-10-29T23:03:22.605Z,1.00
2023-10-29T23:05:49.348Z,1.05
2023-10-29T23:08:16.855Z,1.60
2023-10-29T23:10:43.583Z,1.15
2023-10-29T23:13:10.225Z,1.02
2023-10-29T23:15:36.885Z,1.30
2023-10-29T23:18:03.651Z,1.00
2023-10-29T23:20:30.523Z,1.17
2023-10-29T23:22:57.129Z,1.00
2023-10-29T23:25:23.734Z,1.00
2023-10-29T23:27:50.338Z,1.20
2023-10-29T23:30:16.946Z,1.23
2023-10-29T23:32:43.625Z,1.17
2023-10-29T23:35:10.294Z,0.90
2023-10-29T23:37:36.888Z,1.00
2023-10-29T23:40:04.728Z,1.20
2023-10-29T23:42:31.343Z,1.08
2023-10-29T23:44:57.956Z,1.02
2023-10-29T23:47:24.597Z,1.00
2023-10-29T23:49:51.197Z,0.88
2023-10-29T23:52:17.842Z,1.33
2023-10-29T23:54:45.985Z,1.13
2023-10-29T23:57:13.019Z,1.05
2023-10-29T23:59:40.045Z,1.08
